Time;durP1;ratioP1;P1;durP2;ratioP2;P2;SDS_P1;SDS_P2;PMS_P1;PMS_P2;Temp;Humidity;BMP_temperature;BMP_pressure;BME280_temperature;BME280_humidity;BME280_pressure;Samples;Min_cycle;Max_cycle;Signal;HPM_P1;HPM_P2
2023/09/25 00:00:30;;;;;;;3.00;2.60;;;14.00;99.90;;;;;;5036337;28;20487;-59
2023/09/25 00:02:59;;;;;;;3.53;2.60;;;13.90;99.90;;;;;;5036572;28;20516;-58
2023/09/25 00:05:28;;;;;;;4.43;3.00;;;13.90;99.90;;;;;;5036885;28;20557;-57
2023/09/25 00:07:55;;;;;;;4.13;2.40;;;13.90;99.90;;;;;;5036388;28;20501;-58
2023/09/25 00:10:24;;;;;;;3.20;2.20;;;13.90;99.90;;;;;;5035148;28;20463;-58
2023/09/25 00:12:52;;;;;;;3.50;2.50;;;13.80;99.90;;;;;;5036321;28;20459;-59
2023/09/25 00:15:19;;;;;;;3.67;2.90;;;13.80;99.90;;;;;;5036274;28;20470;-59
2023/09/25 00:17:47;;;;;;;2.63;2.37;;;13.80;99.90;;;;;;5035610;28;20483;-59
2023/09/25 00:20:14;;;;;;;3.83;2.40;;;13.90;99.90;;;;;;5036078;28;20470;-59
2023/09/25 00:22:42;;;;;;;2.97;2.30;;;13.80;99.90;;;;;;5036017;28;20807;-59
2023/09/25 00:25:10;;;;;;;3.67;2.47;;;13.80;99.90;;;;;;5036028;28;20910;-59
2023/09/25 00:27:38;;;;;;;2.67;2.43;;;13.80;99.90;;;;;;5036114;28;20609;-59
2023/09/25 00:30:08;;;;;;;4.07;3.03;;;13.80;99.90;;;;;;5036063;28;20724;-59
2023/09/25 00:32:36;;;;;;;2.87;2.40;;;13.70;99.90;;;;;;5035840;28;20470;-58
2023/09/25 00:35:05;;;;;;;2.63;2.40;;;13.70;99.90;;;;;;5035804;28;20552;-60
2023/09/25 00:37:32;;;;;;;4.10;2.40;;;13.70;99.90;;;;;;5036209;28;20459;-58
2023/09/25 00:40:01;;;;;;;5.50;2.43;;;13.80;99.90;;;;;;5035850;28;20499;-59
2023/09/25 00:42:28;;;;;;;5.53;2.40;;;13.80;99.90;;;;;;5035496;28;20463;-59
2023/09/25 00:44:56;;;;;;;4.23;2.83;;;13.80;99.90;;;;;;5036066;28;20474;-59
2023/09/25 00:47:24;;;;;;;4.40;2.37;;;13.80;99.90;;;;;;5035882;28;20770;-58
2023/09/25 00:49:51;;;;;;;4.03;2.67;;;13.80;99.90;;;;;;5035787;28;20495;-58
2023/09/25 00:52:18;;;;;;;3.90;2.70;;;13.80;99.90;;;;;;5035791;28;20470;-59
2023/09/25 00:54:46;;;;;;;2.67;2.33;;;13.70;99.90;;;;;;5035698;28;20471;-59
2023/09/25 00:57:13;;;;;;;3.80;2.10;;;13.70;99.90;;;;;;5035547;28;20456;-58
2023/09/25 00:59:41;;;;;;;6.03;2.57;;;13.70;99.90;;;;;;5035567;28;20494;-58
2023/09/25 01:02:10;;;;;;;3.03;2.20;;;13.80;99.90;;;;;;5034979;28;20459;-59
2023/09/25 01:04:37;;;;;;;4.00;2.67;;;13.70;99.90;;;;;;5035632;28;20506;-59
2023/09/25 01:07:05;;;;;;;3.90;2.27;;;13.70;99.90;;;;;;5035651;28;20926;-59
2023/09/25 01:09:33;;;;;;;3.10;2.30;;;13.70;99.90;;;;;;5034672;28;20826;-59
2023/09/25 01:12:00;;;;;;;2.60;2.27;;;13.70;99.90;;;;;;5035073;28;20639;-59
2023/09/25 01:14:27;;;;;;;3.67;2.07;;;13.70;99.90;;;;;;5035004;28;20491;-59
2023/09/25 01:16:56;;;;;;;2.80;2.33;;;13.60;99.90;;;;;;5035246;28;20812;-59
2023/09/25 01:19:24;;;;;;;4.10;2.67;;;13.60;99.90;;;;;;5035240;28;20906;-59
2023/09/25 01:21:53;;;;;;;3.43;2.27;;;13.70;99.90;;;;;;5035001;28;20550;-59
2023/09/25 01:24:20;;;;;;;3.23;2.30;;;13.70;99.90;;;;;;5035302;28;20558;-59
2023/09/25 01:26:47;;;;;;;4.37;2.40;;;13.70;99.90;;;;;;5034715;28;20469;-59
2023/09/25 01:29:17;;;;;;;3.33;2.57;;;13.60;99.90;;;;;;5035098;28;20554;-59
2023/09/25 01:31:45;;;;;;;3.97;2.10;;;13.60;99.90;;;;;;5035231;28;20806;-58
2023/09/25 01:34:12;;;;;;;5.53;2.60;;;13.70;99.90;;;;;;5034941;28;20554;-58
2023/09/25 01:36:39;;;;;;;3.53;2.53;;;13.70;99.90;;;;;;5035016;28;20562;-58
2023/09/25 01:39:10;;;;;;;3.77;2.13;;;13.80;99.90;;;;;;5035263;28;20466;-59
2023/09/25 01:41:37;;;;;;;3.50;2.30;;;13.80;99.90;;;;;;5035197;28;20464;-58
2023/09/25 01:44:05;;;;;;;2.87;2.23;;;13.80;99.90;;;;;;5034725;28;20545;-59
2023/09/25 01:46:32;;;;;;;2.93;2.00;;;13.90;99.90;;;;;;5034896;28;20577;-58
2023/09/25 01:48:59;;;;;;;2.60;2.23;;;13.90;99.90;;;;;;5034641;28;20548;-58
2023/09/25 01:51:27;;;;;;;2.63;2.23;;;13.90;99.90;;;;;;5034780;28;20776;-58
2023/09/25 01:53:54;;;;;;;4.10;2.40;;;13.90;99.90;;;;;;5034947;28;20841;-59
2023/09/25 01:56:22;;;;;;;4.33;2.60;;;13.90;99.90;;;;;;5034169;28;20463;-58
2023/09/25 01:58:49;;;;;;;5.60;2.77;;;13.90;99.90;;;;;;5034622;28;20852;-58
2023/09/25 02:01:17;;;;;;;2.70;2.10;;;13.90;99.90;;;;;;5034698;28;20557;-58
2023/09/25 02:03:45;;;;;;;3.80;2.20;;;13.90;99.90;;;;;;5034710;28;20469;-58
2023/09/25 02:06:12;;;;;;;3.60;2.43;;;13.90;99.90;;;;;;5034609;28;20489;-58
2023/09/25 02:08:40;;;;;;;4.77;2.30;;;13.90;99.90;;;;;;5033598;28;20585;-56
2023/09/25 02:11:08;;;;;;;2.70;2.47;;;13.80;99.90;;;;;;5034062;28;20467;-59
2023/09/25 02:13:37;;;;;;;3.73;2.50;;;13.80;99.90;;;;;;5034286;28;20957;-58
2023/09/25 02:16:04;;;;;;;3.10;2.50;;;13.80;99.90;;;;;;5033938;28;20459;-58
2023/09/25 02:18:32;;;;;;;2.40;2.00;;;13.80;99.90;;;;;;5034153;28;20540;-58
2023/09/25 02:20:59;;;;;;;2.60;1.90;;;13.80;99.90;;;;;;5034500;28;20490;-58
2023/09/25 02:23:26;;;;;;;2.30;2.10;;;13.80;99.90;;;;;;5034660;28;20459;-58
2023/09/25 02:25:53;;;;;;;2.63;2.20;;;13.70;99.90;;;;;;5034372;28;20471;-58
2023/09/25 02:28:20;;;;;;;3.70;2.50;;;13.60;99.90;;;;;;5034160;28;20495;-58
2023/09/25 02:30:49;;;;;;;3.53;2.63;;;13.60;99.90;;;;;;5034209;28;20541;-59
2023/09/25 02:33:16;;;;;;;2.47;2.00;;;13.60;99.90;;;;;;5033432;28;20456;-59
2023/09/25 02:35:43;;;;;;;2.43;2.23;;;13.60;99.90;;;;;;5033944;28;20494;-58
2023/09/25 02:38:10;;;;;;;3.10;2.00;;;13.60;99.90;;;;;;5033898;28;20549;-59
2023/09/25 02:40:37;;;;;;;2.67;2.47;;;13.70;99.90;;;;;;5034048;28;20459;-58
2023/09/25 02:43:05;;;;;;;2.77;2.40;;;13.70;99.90;;;;;;5033988;28;20490;-58
2023/09/25 02:45:32;;;;;;;2.33;1.97;;;13.70;99.90;;;;;;5034236;28;20465;-58
2023/09/25 02:48:01;;;;;;;2.83;2.30;;;13.70;99.90;;;;;;5034306;28;20510;-58
2023/09/25 02:50:28;;;;;;;2.87;2.40;;;13.70;99.90;;;;;;5032653;28;20459;-58
2023/09/25 02:52:55;;;;;;;3.33;2.30;;;13.60;99.90;;;;;;5033813;28;20768;-58
2023/09/25 02:55:22;;;;;;;3.47;2.30;;;13.60;99.90;;;;;;5033913;28;20562;-58
2023/09/25 02:57:50;;;;;;;2.73;2.30;;;13.50;99.90;;;;;;5033954;28;20506;-58
2023/09/25 03:00:17;;;;;;;3.60;2.50;;;13.50;99.90;;;;;;5033529;28;20466;-58
2023/09/25 03:02:44;;;;;;;5.47;2.80;;;13.50;99.90;;;;;;5033617;28;20467;-59
2023/09/25 03:05:14;;;;;;;3.30;2.70;;;13.50;99.90;;;;;;5033732;28;20467;-59
2023/09/25 03:07:42;;;;;;;2.70;2.30;;;13.50;99.90;;;;;;5033763;28;20503;-58
2023/09/25 03:10:10;;;;;;;4.70;2.20;;;13.50;99.90;;;;;;5033859;28;20786;-58
2023/09/25 03:12:37;;;;;;;4.23;2.53;;;13.50;99.90;;;;;;5033897;28;20748;-58
2023/09/25 03:15:05;;;;;;;2.87;2.60;;;13.40;99.90;;;;;;5033656;28;20459;-58
2023/09/25 03:17:34;;;;;;;3.33;2.90;;;13.30;99.90;;;;;;5033444;28;20585;-58
2023/09/25 03:20:03;;;;;;;4.10;2.67;;;13.20;99.90;;;;;;5033647;28;20459;-58
2023/09/25 03:22:31;;;;;;;3.03;2.60;;;13.20;99.90;;;;;;5033308;28;20510;-58
2023/09/25 03:24:59;;;;;;;3.23;2.10;;;13.10;99.90;;;;;;5033734;28;20466;-58
2023/09/25 03:27:26;;;;;;;3.90;3.03;;;13.10;99.90;;;;;;5033641;28;20542;-58
2023/09/25 03:29:53;;;;;;;3.30;2.90;;;13.10;99.90;;;;;;5033650;28;20552;-58
2023/09/25 03:32:20;;;;;;;4.57;2.70;;;13.10;99.90;;;;;;5032984;28;20915;-58
2023/09/25 03:34:47;;;;;;;5.03;3.23;;;13.10;99.90;;;;;;5031622;28;20465;-56
2023/09/25 03:37:14;;;;;;;2.90;2.60;;;13.00;99.90;;;;;;5031961;28;20502;-56
2023/09/25 03:39:43;;;;;;;3.57;2.40;;;13.10;99.90;;;;;;5032177;28;20463;-58
2023/09/25 03:42:10;;;;;;;6.97;2.47;;;13.10;99.90;;;;;;5031908;28;20459;-57
2023/09/25 03:44:37;;;;;;;3.10;2.80;;;13.10;99.90;;;;;;5031586;28;20926;-56
2023/09/25 03:47:04;;;;;;;3.13;2.83;;;13.10;99.90;;;;;;5035030;28;20956;-59
2023/09/25 03:49:31;;;;;;;3.47;2.70;;;13.00;99.90;;;;;;5036898;28;20585;-58
2023/09/25 03:51:59;;;;;;;3.60;2.30;;;13.00;99.90;;;;;;5036531;28;20459;-58
2023/09/25 03:54:26;;;;;;;2.73;2.37;;;13.00;99.90;;;;;;5036515;28;20466;-59
2023/09/25 03:56:54;;;;;;;2.97;2.70;;;13.00;99.90;;;;;;5036224;28;20470;-58
2023/09/25 03:59:22;;;;;;;5.77;2.50;;;13.00;99.90;;;;;;5036444;28;20562;-58
2023/09/25 04:01:49;;;;;;;3.93;2.80;;;12.90;99.90;;;;;;5036536;28;20459;-58
2023/09/25 04:04:16;;;;;;;4.27;2.67;;;13.00;99.90;;;;;;5036087;28;20510;-58
2023/09/25 04:06:44;;;;;;;3.10;2.67;;;13.00;99.90;;;;;;5036376;28;20546;-58
2023/09/25 04:09:11;;;;;;;4.20;3.20;;;13.00;99.90;;;;;;5035528;28;20491;-58
2023/09/25 04:11:38;;;;;;;3.13;2.60;;;13.00;99.90;;;;;;5036913;28;20465;-58
2023/09/25 04:14:07;;;;;;;3.30;2.50;;;13.00;99.90;;;;;;5036081;28;20883;-59
2023/09/25 04:16:34;;;;;;;3.77;2.63;;;12.90;99.90;;;;;;5034799;28;20506;-56
2023/09/25 04:19:04;;;;;;;4.33;2.70;;;13.00;99.90;;;;;;5034713;28;20550;-55
2023/09/25 04:21:32;;;;;;;2.90;2.50;;;12.90;99.90;;;;;;5034867;28;20469;-56
2023/09/25 04:24:01;;;;;;;6.30;2.90;;;12.90;99.90;;;;;;5034680;28;20516;-56
2023/09/25 04:26:29;;;;;;;3.67;2.70;;;12.80;1.00;;;;;;5034415;28;20998;-57
2023/09/25 04:28:57;;;;;;;3.27;2.70;;;12.80;1.00;;;;;;5033972;28;20499;-57
2023/09/25 04:31:28;;;;;;;3.53;2.50;;;12.70;1.00;;;;;;5034820;28;20498;-58
2023/09/25 04:33:55;;;;;;;2.50;2.30;;;12.70;1.00;;;;;;5036009;28;20473;-58
2023/09/25 04:36:23;;;;;;;2.90;2.30;;;12.70;1.00;;;;;;5035861;28;20464;-58
2023/09/25 04:38:51;;;;;;;2.93;2.60;;;12.70;1.00;;;;;;5035660;28;20459;-58
2023/09/25 04:41:18;;;;;;;3.80;2.50;;;12.80;1.00;;;;;;5035966;28;20438;-59
2023/09/25 04:43:45;;;;;;;3.00;2.43;;;12.80;1.00;;;;;;5035923;28;20465;-59
2023/09/25 04:46:13;;;;;;;3.40;3.00;;;12.70;1.00;;;;;;5035459;28;20506;-59
2023/09/25 04:48:41;;;;;;;3.83;3.00;;;12.70;1.00;;;;;;5035842;28;20491;-59
2023/09/25 04:51:09;;;;;;;3.53;2.50;;;12.70;1.00;;;;;;5035677;28;20495;-59
2023/09/25 04:53:36;;;;;;;5.13;2.27;;;12.60;1.00;;;;;;5035803;28;20463;-58
2023/09/25 04:56:05;;;;;;;4.00;2.40;;;12.50;1.00;;;;;;5035465;28;20880;-59
2023/09/25 04:58:32;;;;;;;3.10;2.80;;;12.40;1.00;;;;;;5034928;28;20961;-58
2023/09/25 05:00:59;;;;;;;3.60;2.50;;;12.50;1.00;;;;;;5035940;28;20466;-58
2023/09/25 05:03:26;;;;;;;3.40;2.73;;;12.50;1.00;;;;;;5035653;28;20550;-58
2023/09/25 05:05:55;;;;;;;3.90;2.97;;;12.50;1.00;;;;;;5035851;28;20945;-59
2023/09/25 05:08:24;;;;;;;6.00;3.00;;;12.50;1.00;;;;;;5034573;28;20515;-58
2023/09/25 05:10:51;;;;;;;4.57;2.80;;;12.40;1.00;;;;;;5034804;28;20526;-59
2023/09/25 05:13:18;;;;;;;3.70;2.80;;;12.40;1.00;;;;;;5035322;28;20440;-59
2023/09/25 05:15:46;;;;;;;3.90;3.23;;;12.50;1.00;;;;;;5035322;28;20482;-59
2023/09/25 05:18:13;;;;;;;3.93;2.73;;;12.50;1.00;;;;;;5034887;28;20515;-59
2023/09/25 05:20:40;;;;;;;3.30;2.90;;;12.50;1.00;;;;;;5035153;28;20459;-59
2023/09/25 05:23:09;;;;;;;5.20;3.10;;;12.40;1.00;;;;;;5035107;28;20460;-58
2023/09/25 05:25:36;;;;;;;3.13;2.47;;;12.40;1.00;;;;;;5035100;28;20465;-58
2023/09/25 05:28:05;;;;;;;3.77;3.23;;;12.40;1.00;;;;;;5034503;28;20459;-59
2023/09/25 05:30:32;;;;;;;4.53;3.10;;;12.40;1.00;;;;;;5034924;28;20470;-59
2023/09/25 05:33:00;;;;;;;4.53;3.00;;;12.40;1.00;;;;;;5035232;28;20554;-58
2023/09/25 05:35:27;;;;;;;4.13;3.03;;;12.40;1.00;;;;;;5035135;28;20471;-58
2023/09/25 05:37:54;;;;;;;4.23;2.93;;;12.40;1.00;;;;;;5034647;28;20888;-58
2023/09/25 05:40:23;;;;;;;3.70;3.30;;;12.50;1.00;;;;;;5034699;28;20953;-58
2023/09/25 05:42:51;;;;;;;4.50;3.60;;;12.50;1.00;;;;;;5035007;28;20968;-58
2023/09/25 05:45:20;;;;;;;4.20;2.70;;;12.50;1.00;;;;;;5035371;28;20481;-58
2023/09/25 05:47:47;;;;;;;4.37;3.37;;;12.60;1.00;;;;;;5035336;28;20459;-58
2023/09/25 05:50:14;;;;;;;2.87;2.50;;;12.60;1.00;;;;;;5033886;28;20564;-56
2023/09/25 05:52:42;;;;;;;3.90;3.00;;;12.70;1.00;;;;;;5034486;28;20887;-58
2023/09/25 05:55:11;;;;;;;4.03;3.40;;;12.70;1.00;;;;;;5034803;28;20459;-58
2023/09/25 05:57:41;;;;;;;4.20;3.03;;;12.70;1.00;;;;;;5035082;28;20459;-58
2023/09/25 06:00:11;;;;;;;4.47;2.90;;;12.70;1.00;;;;;;5034600;28;20821;-59
2023/09/25 06:02:38;;;;;;;3.70;2.63;;;12.70;1.00;;;;;;5034744;28;20529;-58
2023/09/25 06:05:07;;;;;;;4.23;2.73;;;12.70;1.00;;;;;;5034834;28;20481;-59
2023/09/25 06:07:36;;;;;;;4.00;2.87;;;12.80;1.00;;;;;;5034872;28;20975;-58
2023/09/25 06:10:04;;;;;;;4.20;2.90;;;12.80;1.00;;;;;;5032919;28;20549;-59
2023/09/25 06:12:31;;;;;;;3.77;2.77;;;12.90;1.00;;;;;;5034607;28;20803;-58
2023/09/25 06:15:00;;;;;;;3.97;3.03;;;13.00;1.00;;;;;;5034711;28;20466;-59
2023/09/25 06:17:27;;;;;;;3.13;2.60;;;13.10;1.00;;;;;;5034086;28;20487;-59
2023/09/25 06:19:56;;;;;;;3.10;2.33;;;13.20;99.90;;;;;;5034935;28;20549;-59
2023/09/25 06:22:23;;;;;;;3.63;2.67;;;13.40;99.90;;;;;;5033928;28;20467;-58
2023/09/25 06:24:51;;;;;;;5.27;2.50;;;13.40;99.90;;;;;;5034697;28;20901;-59
2023/09/25 06:27:18;;;;;;;4.43;2.50;;;13.60;99.90;;;;;;5034421;28;20464;-59
2023/09/25 06:29:46;;;;;;;4.00;2.63;;;13.70;99.90;;;;;;5034580;28;20501;-59
2023/09/25 06:32:14;;;;;;;3.00;2.70;;;13.80;99.90;;;;;;5018237;28;20893;-58
2023/09/25 06:34:42;;;;;;;3.10;2.80;;;13.90;99.90;;;;;;5013542;28;20912;-59
2023/09/25 06:37:09;;;;;;;4.40;2.80;;;14.00;99.90;;;;;;5013811;28;20456;-59
2023/09/25 06:39:36;;;;;;;4.17;3.00;;;14.10;99.90;;;;;;5013912;28;20522;-59
2023/09/25 06:42:04;;;;;;;3.23;2.20;;;14.20;99.90;;;;;;5013142;28;20775;-58
2023/09/25 06:44:31;;;;;;;5.37;2.77;;;14.30;99.90;;;;;;5030012;28;20459;-59
2023/09/25 06:46:58;;;;;;;3.00;2.70;;;14.30;99.90;;;;;;5034116;28;20766;-58
2023/09/25 06:49:28;;;;;;;3.93;3.20;;;14.40;99.30;;;;;;5034501;28;20471;-59
2023/09/25 06:51:55;;;;;;;4.30;2.90;;;14.50;99.90;;;;;;5034183;28;20890;-59
2023/09/25 06:54:22;;;;;;;4.37;3.00;;;14.60;54.90;;;;;;5032340;28;20895;-59
2023/09/25 06:56:50;;;;;;;4.03;3.17;;;14.60;18.90;;;;;;5031764;28;20508;-58
2023/09/25 06:59:17;;;;;;;3.80;2.67;;;14.70;1.50;;;;;;5032886;28;20455;-59
2023/09/25 07:01:45;;;;;;;2.73;2.50;;;14.80;3.40;;;;;;5032525;28;20943;-58
2023/09/25 07:04:12;;;;;;;3.57;2.23;;;14.80;1.00;;;;;;5032322;28;20759;-59
2023/09/25 07:06:41;;;;;;;3.23;2.93;;;15.00;1.00;;;;;;5032128;28;20459;-58
2023/09/25 07:09:09;;;;;;;3.53;2.20;;;15.20;1.00;;;;;;5031052;28;20938;-59
2023/09/25 07:11:38;;;;;;;6.90;4.10;;;15.20;1.00;;;;;;5032121;28;20909;-59
2023/09/25 07:14:06;;;;;;;5.20;3.13;;;15.30;1.00;;;;;;5032187;28;20459;-58
2023/09/25 07:16:35;;;;;;;6.87;4.03;;;15.50;1.00;;;;;;5033533;28;20549;-60
2023/09/25 07:19:02;;;;;;;4.20;2.90;;;15.60;1.00;;;;;;5034176;28;20513;-59
2023/09/25 07:21:29;;;;;;;3.30;2.87;;;15.70;1.00;;;;;;5037028;28;20879;-59
2023/09/25 07:23:58;;;;;;;5.63;2.57;;;15.90;1.00;;;;;;5037307;28;20843;-59
2023/09/25 07:26:25;;;;;;;5.57;2.90;;;16.20;1.00;;;;;;5036971;28;20465;-59
2023/09/25 07:28:52;;;;;;;3.53;2.33;;;16.20;1.00;;;;;;5036874;28;20528;-59
2023/09/25 07:31:21;;;;;;;7.13;3.00;;;16.30;1.00;;;;;;5037113;28;20459;-59
2023/09/25 07:33:49;;;;;;;4.67;2.80;;;16.30;99.90;;;;;;5037288;28;20490;-60
2023/09/25 07:36:20;;;;;;;3.77;2.97;;;16.20;99.90;;;;;;5036876;28;20876;-59
2023/09/25 07:38:47;;;;;;;3.97;3.27;;;16.20;99.90;;;;;;5036951;28;20467;-59
2023/09/25 07:41:16;;;;;;;3.33;2.40;;;16.40;99.90;;;;;;5036929;28;20465;-59
2023/09/25 07:43:43;;;;;;;3.97;2.67;;;16.40;99.90;;;;;;5034579;28;20979;-59
2023/09/25 07:46:10;;;;;;;3.00;2.67;;;16.50;99.90;;;;;;5034030;28;20481;-58
2023/09/25 07:48:38;;;;;;;3.43;2.60;;;16.60;99.90;;;;;;5032640;28;20515;-56
2023/09/25 07:51:07;;;;;;;3.00;2.70;;;16.80;99.90;;;;;;5035822;28;20551;-59
2023/09/25 07:53:34;;;;;;;3.13;2.50;;;17.10;99.90;;;;;;5035512;28;20459;-60
2023/09/25 07:56:02;;;;;;;3.40;2.57;;;17.40;99.90;;;;;;5035576;28;20459;-60
2023/09/25 07:58:32;;;;;;;8.10;3.13;;;17.60;99.90;;;;;;5035492;28;20508;-59
2023/09/25 08:01:05;;;;;;;3.90;3.30;;;17.60;99.90;;;;;;5035569;28;20495;-59
2023/09/25 08:03:32;;;;;;;3.27;2.83;;;17.70;99.90;;;;;;5036159;28;20510;-59
2023/09/25 08:06:05;;;;;;;3.40;2.67;;;17.90;99.90;;;;;;5034588;28;20455;-59
2023/09/25 08:08:32;;;;;;;3.57;2.40;;;17.80;99.90;;;;;;5034109;28;20459;-58
2023/09/25 08:10:59;;;;;;;2.90;2.40;;;17.80;99.90;;;;;;5034019;28;20497;-60
2023/09/25 08:13:27;;;;;;;4.53;3.53;;;17.90;99.90;;;;;;5034548;28;20463;-60
2023/09/25 08:15:57;;;;;;;4.33;3.10;;;17.90;73.40;;;;;;5035305;28;20459;-60
2023/09/25 08:18:25;;;;;;;4.07;2.73;;;17.80;38.20;;;;;;5034202;28;20540;-60
2023/09/25 08:20:52;;;;;;;3.90;3.50;;;18.00;9.80;;;;;;5034489;28;20459;-61
2023/09/25 08:23:19;;;;;;;8.93;3.83;;;18.10;1.00;;;;;;5034750;28;20562;-60
2023/09/25 08:25:46;;;;;;;4.67;2.90;;;18.30;1.00;;;;;;5035225;28;20463;-60
2023/09/25 08:28:14;;;;;;;4.80;2.67;;;18.40;1.00;;;;;;5036076;28;20558;-60
2023/09/25 08:30:42;;;;;;;3.30;3.00;;;18.50;1.00;;;;;;5035827;28;20470;-59
2023/09/25 08:33:10;;;;;;;3.27;2.97;;;18.60;1.00;;;;;;5035057;28;20554;-60
2023/09/25 08:35:38;;;;;;;5.73;2.53;;;18.60;1.00;;;;;;5036306;28;20455;-60
2023/09/25 08:38:05;;;;;;;3.43;3.00;;;18.90;1.00;;;;;;5035856;28;20528;-60
2023/09/25 08:40:33;;;;;;;3.00;2.60;;;19.20;1.00;;;;;;5035935;28;20459;-60
2023/09/25 08:43:00;;;;;;;3.30;2.97;;;19.10;1.00;;;;;;5035806;28;20469;-60
2023/09/25 08:45:28;;;;;;;3.50;2.83;;;19.20;1.00;;;;;;5036270;28;20516;-59
2023/09/25 08:47:55;;;;;;;3.43;2.60;;;19.30;1.00;;;;;;5036293;28;20725;-60
2023/09/25 08:50:24;;;;;;;4.50;2.67;;;19.20;1.00;;;;;;5034948;28;21022;-59
2023/09/25 08:52:52;;;;;;;4.23;3.30;;;19.30;1.00;;;;;;5035522;28;20459;-60
2023/09/25 08:55:19;;;;;;;5.90;3.13;;;19.50;1.00;;;;;;5035642;28;20470;-60
2023/09/25 08:57:47;;;;;;;3.07;2.77;;;19.50;1.00;;;;;;5035065;28;20451;-59
2023/09/25 09:00:15;;;;;;;4.83;3.27;;;19.60;1.00;;;;;;5035466;28;20500;-60
2023/09/25 09:02:43;;;;;;;3.20;2.60;;;19.70;1.00;;;;;;5034129;28;20919;-60
2023/09/25 09:05:12;;;;;;;4.10;3.27;;;19.90;1.00;;;;;;5026169;28;21087;-58
2023/09/25 09:07:55;;;;;;;4.17;2.90;;;20.30;1.00;;;;;;5035172;28;20455;-60
2023/09/25 09:10:22;;;;;;;3.03;2.70;;;20.40;99.90;;;;;;5032913;28;20960;-59
2023/09/25 09:12:54;;;;;;;3.10;2.80;;;20.40;99.90;;;;;;5030029;28;20558;-60
2023/09/25 09:15:26;;;;;;;3.23;2.50;;;20.50;99.90;;;;;;5035390;28;20463;-60
2023/09/25 09:17:54;;;;;;;3.37;2.83;;;20.60;99.90;;;;;;5014866;28;20503;-60
2023/09/25 09:20:23;;;;;;;3.10;2.60;;;20.60;99.90;;;;;;5017766;28;20482;-60
2023/09/25 09:22:54;;;;;;;5.47;2.77;;;20.70;99.90;;;;;;5035020;28;20879;-60
2023/09/25 09:25:27;;;;;;;3.93;3.40;;;21.00;99.90;;;;;;5025907;28;20511;-60
2023/09/25 09:27:54;;;;;;;3.60;2.80;;;21.20;99.90;;;;;;5012896;28;21512;-60
2023/09/25 09:30:23;;;;;;;4.03;2.80;;;21.30;99.90;;;;;;5012110;28;20582;-61
2023/09/25 09:32:51;;;;;;;8.37;3.10;;;20.90;99.90;;;;;;5012392;28;20463;-59
2023/09/25 09:35:24;;;;;;;4.60;3.00;;;20.90;99.90;;;;;;5012576;28;20854;-61
2023/09/25 09:37:53;;;;;;;7.50;3.67;;;21.20;99.90;;;;;;5013577;28;20538;-59
2023/09/25 09:40:24;;;;;;;2.87;2.60;;;20.90;99.90;;;;;;5013353;28;20518;-59
2023/09/25 09:42:52;;;;;;;5.50;2.50;;;21.20;99.90;;;;;;5014497;28;20464;-60
2023/09/25 09:45:20;;;;;;;3.03;2.73;;;21.40;99.90;;;;;;5015188;28;20520;-60
2023/09/25 09:47:49;;;;;;;3.27;2.90;;;21.50;99.90;;;;;;5029491;28;20791;-60
2023/09/25 09:50:20;;;;;;;3.57;3.10;;;21.60;99.90;;;;;;5031918;28;20496;-61
2023/09/25 09:52:48;;;;;;;4.13;2.90;;;21.60;99.90;;;;;;5014993;28;20460;-60
2023/09/25 09:55:17;;;;;;;2.60;2.40;;;21.80;99.90;;;;;;5015104;28;20551;-60
2023/09/25 09:57:47;;;;;;;3.60;3.00;;;22.00;99.90;;;;;;5015318;28;20512;-61
2023/09/25 10:00:15;;;;;;;3.10;2.73;;;22.10;99.90;;;;;;5014956;28;20919;-60
2023/09/25 10:02:43;;;;;;;3.70;3.03;;;22.20;99.90;;;;;;5018775;28;20886;-60
2023/09/25 10:05:12;;;;;;;4.30;3.00;;;22.20;99.90;;;;;;5030998;28;20515;-60
2023/09/25 10:08:10;;;;;;;3.27;2.90;;;22.10;99.90;;;;;;5034547;28;20557;-60
2023/09/25 10:10:39;;;;;;;3.90;2.93;;;22.10;99.90;;;;;;5024646;28;20493;-60
2023/09/25 10:13:13;;;;;;;3.63;2.87;;;22.40;99.90;;;;;;5031920;28;20595;-59
2023/09/25 10:15:41;;;;;;;2.50;2.20;;;22.50;99.90;;;;;;5032287;28;20459;-60
2023/09/25 10:18:09;;;;;;;2.83;2.53;;;22.60;99.90;;;;;;5032726;28;20479;-58
2023/09/25 10:20:40;;;;;;;4.10;2.73;;;22.80;99.90;;;;;;5032720;28;20465;-62
2023/09/25 10:23:11;;;;;;;6.40;2.73;;;22.80;99.90;;;;;;5032783;28;20482;-59
2023/09/25 10:25:50;;;;;;;4.40;2.60;;;23.00;99.90;;;;;;5032984;28;20481;-60
2023/09/25 10:28:23;;;;;;;3.30;2.67;;;23.00;99.90;;;;;;5033740;28;20477;-60
2023/09/25 10:30:51;;;;;;;3.60;2.33;;;22.90;99.90;;;;;;5034151;28;20532;-61
2023/09/25 10:33:19;;;;;;;3.70;3.00;;;23.00;99.90;;;;;;5034283;28;20463;-61
2023/09/25 10:35:48;;;;;;;2.57;2.37;;;23.10;99.90;;;;;;5035739;28;20480;-61
2023/09/25 10:38:22;;;;;;;3.50;2.63;;;23.30;99.90;;;;;;5106530;28;20479;-60
2023/09/25 10:40:50;;;;;;;3.43;2.50;;;23.50;99.90;;;;;;5138226;28;20458;-60
2023/09/25 10:43:23;;;;;;;3.50;2.97;;;23.60;99.90;;;;;;5138303;28;20463;-61
2023/09/25 10:45:52;;;;;;;2.90;2.50;;;23.80;99.90;;;;;;5138166;28;20461;-61
2023/09/25 10:48:20;;;;;;;3.50;2.60;;;23.90;99.90;;;;;;5138066;28;20899;-60
2023/09/25 10:50:49;;;;;;;2.53;2.33;;;24.20;99.90;;;;;;5137487;28;20491;-60
2023/09/25 10:53:16;;;;;;;2.70;2.50;;;24.20;99.90;;;;;;5122054;28;20464;-60
2023/09/25 10:55:44;;;;;;;3.00;2.70;;;24.30;99.90;;;;;;5035084;28;20465;-61
2023/09/25 10:58:14;;;;;;;3.70;2.53;;;24.60;99.90;;;;;;5028845;27;20475;-61
2023/09/25 11:00:44;;;;;;;3.00;2.70;;;24.60;99.90;;;;;;5016972;28;20499;-60
2023/09/25 11:03:11;;;;;;;3.73;2.80;;;24.60;99.90;;;;;;5017757;28;20464;-61
2023/09/25 11:05:40;;;;;;;2.83;2.63;;;24.40;91.80;;;;;;5017623;28;20470;-60
2023/09/25 11:08:14;;;;;;;3.30;3.00;;;24.60;69.60;;;;;;5017153;28;20884;-60
2023/09/25 11:10:42;;;;;;;5.83;3.27;;;24.80;87.80;;;;;;5016627;28;20535;-60
2023/09/25 11:13:10;;;;;;;2.67;2.40;;;25.10;87.90;;;;;;5017056;28;20546;-61
2023/09/25 11:15:40;;;;;;;3.63;2.50;;;25.10;92.20;;;;;;5016855;28;20468;-60
2023/09/25 11:18:10;;;;;;;2.37;2.17;;;25.20;99.90;;;;;;5016751;28;20969;-61
2023/09/25 11:20:39;;;;;;;3.60;2.70;;;25.00;99.90;;;;;;5016921;28;20460;-60
2023/09/25 11:23:08;;;;;;;2.70;2.40;;;24.90;99.80;;;;;;5016911;28;20573;-60
2023/09/25 11:25:44;;;;;;;2.83;2.53;;;24.80;97.40;;;;;;5016494;28;20488;-59
2023/09/25 11:28:16;;;;;;;2.63;2.43;;;24.60;95.70;;;;;;5017325;28;20481;-60
2023/09/25 11:30:46;;;;;;;2.83;2.60;;;24.60;70.00;;;;;;5017058;28;20544;-60
2023/09/25 11:33:18;;;;;;;3.67;2.50;;;24.70;52.40;;;;;;5017195;28;20558;-61
2023/09/25 11:35:47;;;;;;;2.63;2.43;;;24.80;67.40;;;;;;5017692;28;20464;-60
2023/09/25 11:38:21;;;;;;;2.87;2.67;;;24.90;99.90;;;;;;5016649;28;20464;-61
2023/09/25 11:40:50;;;;;;;3.40;2.80;;;24.80;83.60;;;;;;5017313;28;20506;-60
2023/09/25 11:43:20;;;;;;;3.10;2.80;;;24.40;78.60;;;;;;5017359;28;20488;-60
2023/09/25 11:45:48;;;;;;;2.97;2.77;;;24.40;68.30;;;;;;5017199;28;20506;-60
2023/09/25 11:48:18;;;;;;;2.80;2.40;;;24.30;57.10;;;;;;5017374;28;20885;-60
2023/09/25 11:50:46;;;;;;;2.70;2.50;;;24.40;69.20;;;;;;5016111;28;20492;-60
2023/09/25 11:53:13;;;;;;;3.37;2.80;;;24.50;92.40;;;;;;5017419;28;20488;-59
2023/09/25 11:55:40;;;;;;;2.60;2.23;;;24.30;86.00;;;;;;5016955;28;20555;-60
2023/09/25 11:58:09;;;;;;;3.00;2.70;;;24.40;81.20;;;;;;5016576;28;20460;-60
2023/09/25 12:00:36;;;;;;;4.20;2.50;;;24.50;99.90;;;;;;5017298;28;20460;-60
2023/09/25 12:03:07;;;;;;;5.00;2.50;;;24.50;99.90;;;;;;5017351;28;20491;-60
2023/09/25 12:05:37;;;;;;;2.60;2.40;;;24.60;99.90;;;;;;5017304;28;20471;-60
2023/09/25 12:08:06;;;;;;;3.43;3.13;;;24.80;99.90;;;;;;5016276;28;20542;-59
2023/09/25 12:10:37;;;;;;;2.43;2.23;;;24.80;99.90;;;;;;5016791;28;20947;-60
2023/09/25 12:13:06;;;;;;;4.23;2.40;;;24.60;99.90;;;;;;5016567;28;20464;-60
2023/09/25 12:15:33;;;;;;;2.87;2.43;;;24.40;99.90;;;;;;5015859;28;20456;-59
2023/09/25 12:18:02;;;;;;;3.47;2.63;;;24.30;99.90;;;;;;5015806;28;20582;-59
2023/09/25 12:20:30;;;;;;;2.90;2.60;;;24.40;99.90;;;;;;5016296;28;20461;-61
2023/09/25 12:22:59;;;;;;;2.70;2.50;;;24.60;99.90;;;;;;5016063;28;20481;-61
2023/09/25 12:25:27;;;;;;;3.33;2.37;;;24.60;99.90;;;;;;5031923;28;20506;-59
2023/09/25 12:27:54;;;;;;;2.53;2.33;;;24.80;99.90;;;;;;5032959;28;20882;-60
2023/09/25 12:30:22;;;;;;;3.10;2.70;;;25.00;99.90;;;;;;5034021;28;21039;-60
2023/09/25 12:32:49;;;;;;;4.10;2.87;;;25.30;99.90;;;;;;5035077;28;20546;-60
2023/09/25 12:35:18;;;;;;;3.17;2.87;;;25.20;99.90;;;;;;5034171;28;20778;-60
2023/09/25 12:37:47;;;;;;;2.57;2.30;;;25.60;99.90;;;;;;5035490;28;20463;-60
2023/09/25 12:40:17;;;;;;;2.73;2.40;;;25.60;99.90;;;;;;5035007;28;20460;-60
2023/09/25 12:42:45;;;;;;;3.03;2.73;;;25.70;99.90;;;;;;5034742;28;20459;-61
2023/09/25 12:45:13;;;;;;;3.13;2.33;;;25.80;99.90;;;;;;5035090;28;20470;-59
2023/09/25 12:47:41;;;;;;;3.10;2.80;;;25.50;99.90;;;;;;5032662;28;20554;-60
2023/09/25 12:50:09;;;;;;;6.67;3.43;;;25.40;99.90;;;;;;5013229;28;20460;-60
2023/09/25 12:52:38;;;;;;;3.00;2.33;;;25.40;99.90;;;;;;5015770;28;20990;-60
2023/09/25 12:55:06;;;;;;;3.30;2.50;;;25.30;99.90;;;;;;5026017;28;20784;-60